createdAt,value
2022-10-11T00:02:17.133Z,96684.09
2022-10-11T00:04:43.774Z,96691.47
2022-10-11T00:07:11.043Z,96695.06
2022-10-11T00:09:37.891Z,96694.84
2022-10-11T00:12:04.779Z,96695.47
2022-10-11T00:14:32.235Z,96703.41
2022-10-11T00:16:59.051Z,96697.31
2022-10-11T00:19:25.753Z,96704.19
2022-10-11T00:21:52.325Z,96703.28
2022-10-11T00:24:19.321Z,96710.81
2022-10-11T00:26:47.095Z,96713.66
2022-10-11T00:29:14.213Z,96717.41
2022-10-11T00:31:41.126Z,96712.81
2022-10-11T00:34:08.480Z,96714.16
2022-10-11T00:36:35.146Z,96714.16
2022-10-11T00:41:32.282Z,96710.56
2022-10-11T00:44:02.652Z,96702.03
2022-10-11T00:46:29.218Z,96704.13
2022-10-11T00:48:56.579Z,96705.22
2022-10-11T00:51:23.083Z,96712.59
2022-10-11T00:53:50.977Z,96712.72
2022-10-11T00:56:17.929Z,96717.13
2022-10-11T00:58:44.547Z,96708.41
2022-10-11T01:01:11.450Z,96709.84
2022-10-11T01:03:38.254Z,96715.22
2022-10-11T01:06:05.471Z,96719.69
2022-10-11T01:08:32.445Z,96718.59
2022-10-11T01:10:59.343Z,96706.00
2022-10-11T01:13:26.033Z,96705.63
2022-10-11T01:15:53.465Z,96705.25
2022-10-11T01:18:20.904Z,96701.84
2022-10-11T01:20:47.696Z,96705.88
2022-10-11T01:23:14.628Z,96705.94
2022-10-11T01:25:41.570Z,96703.94
2022-10-11T01:28:08.349Z,96697.81
2022-10-11T01:30:35.021Z,96695.31
2022-10-11T01:33:02.455Z,96696.75
2022-10-11T01:35:29.645Z,96701.66
2022-10-11T01:37:57.019Z,96694.84
2022-10-11T01:40:23.786Z,96691.31
2022-10-11T01:42:54.040Z,96692.59
2022-10-11T01:45:27.036Z,96694.31
2022-10-11T01:47:55.157Z,96692.13
2022-10-11T01:50:25.223Z,96700.03
2022-10-11T01:52:53.541Z,96696.59
2022-10-11T01:55:20.545Z,96686.44
2022-10-11T01:57:47.750Z,96683.38
2022-10-11T02:03:24.696Z,96682.84
2022-10-11T02:05:51.600Z,96686.66
2022-10-11T02:08:20.013Z,96683.50
2022-10-11T02:10:46.523Z,96680.78
2022-10-11T02:13:13.529Z,96680.94
2022-10-11T02:15:40.219Z,96682.31
2022-10-11T02:18:07.386Z,96680.72
2022-10-11T02:20:34.961Z,96682.38
2022-10-11T02:23:01.715Z,96677.44
2022-10-11T02:25:28.606Z,96672.63
2022-10-11T02:27:55.387Z,96679.03
2022-10-11T02:30:22.416Z,96679.63
2022-10-11T02:32:49.333Z,96672.50
2022-10-11T02:35:16.552Z,96675.22
2022-10-11T02:37:43.398Z,96671.44
2022-10-11T02:40:10.476Z,96680.13
2022-10-11T02:42:37.500Z,96673.97
2022-10-11T02:45:05.274Z,96674.97
2022-10-11T02:47:32.358Z,96675.16
2022-10-11T02:49:59.193Z,96673.09
2022-10-11T02:52:27.614Z,96666.72
2022-10-11T02:54:54.310Z,96670.63
2022-10-11T02:57:21.035Z,96669.53
2022-10-11T02:59:48.677Z,96672.41
2022-10-11T03:02:15.269Z,96671.56
2022-10-11T03:04:42.142Z,96673.22
2022-10-11T03:07:10.298Z,96676.66
2022-10-11T03:09:37.347Z,96682.56
2022-10-11T03:12:06.152Z,96684.34
2022-10-11T03:14:33.801Z,96687.09
2022-10-11T03:17:17.213Z,96683.13
2022-10-11T03:19:48.389Z,96679.63
2022-10-11T03:22:15.189Z,96675.59
2022-10-11T03:24:43.014Z,96677.75
2022-10-11T03:27:10.261Z,96684.25
2022-10-11T03:29:39.413Z,96676.56
2022-10-11T03:32:06.176Z,96681.13
2022-10-11T03:34:32.833Z,96683.88
2022-10-11T03:36:59.746Z,96687.31
2022-10-11T03:39:26.290Z,96689.19
2022-10-11T03:41:54.742Z,96681.28
2022-10-11T03:44:21.271Z,96681.03
2022-10-11T03:46:52.465Z,96690.81
2022-10-11T03:49:21.035Z,96687.25
2022-10-11T03:51:48.352Z,96687.00
2022-10-11T03:54:16.271Z,96690.03
2022-10-11T03:56:43.097Z,96686.00
2022-10-11T03:59:09.767Z,96693.50
2022-10-11T04:01:38.068Z,96694.84
2022-10-11T04:04:05.052Z,96686.84
2022-10-11T04:06:33.966Z,96688.38
2022-10-11T04:09:01.439Z,96693.06
2022-10-11T04:11:29.126Z,96698.31
2022-10-11T04:13:55.646Z,96688.25
2022-10-11T04:16:22.245Z,96689.69
2022-10-11T04:18:49.183Z,96685.91
2022-10-11T04:21:16.164Z,96692.72
2022-10-11T04:23:42.984Z,96685.63
2022-10-11T04:26:10.054Z,96694.47
2022-10-11T04:28:37.804Z,96688.28
2022-10-11T04:31:08.334Z,96683.75
2022-10-11T04:33:35.077Z,96691.91
2022-10-11T04:36:03.998Z,96695.66
2022-10-11T04:38:31.082Z,96691.25
2022-10-11T04:40:57.671Z,96699.84
2022-10-11T04:43:24.286Z,96693.31
2022-10-11T04:45:55.505Z,96691.47
2022-10-11T04:48:26.286Z,96699.56
2022-10-11T04:50:52.971Z,96698.13
2022-10-11T04:53:20.673Z,96702.41
2022-10-11T04:55:47.310Z,96707.53
2022-10-11T04:58:14.448Z,96704.03
2022-10-11T05:00:42.149Z,96704.28
2022-10-11T05:03:09.694Z,96706.53
2022-10-11T05:05:39.393Z,96697.22
2022-10-11T05:08:06.167Z,96703.09
2022-10-11T05:10:33.762Z,96701.72
2022-10-11T05:13:01.634Z,96705.03
2022-10-11T05:15:30.009Z,96707.94
2022-10-11T05:18:03.757Z,96707.81
2022-10-11T05:20:31.734Z,96702.16
2022-10-11T05:22:59.240Z,96702.63
2022-10-11T05:25:28.564Z,96702.81
2022-10-11T05:27:56.248Z,96707.28
2022-10-11T05:30:23.044Z,96703.72
2022-10-11T05:32:57.325Z,96715.16
2022-10-11T05:35:24.016Z,96708.31
2022-10-11T05:37:52.035Z,96713.53
2022-10-11T05:40:20.987Z,96718.03
2022-10-11T05:42:47.497Z,96714.06
2022-10-11T05:45:15.004Z,96712.34
2022-10-11T05:47:42.085Z,96714.97
2022-10-11T05:50:11.180Z,96711.16
2022-10-11T05:52:37.689Z,96712.53
2022-10-11T05:55:04.971Z,96711.75
2022-10-11T05:57:31.786Z,96719.41
2022-10-11T05:59:58.480Z,96715.13
2022-10-11T06:02:25.257Z,96716.84
2022-10-11T06:04:52.277Z,96720.66
2022-10-11T06:07:18.960Z,96725.88
2022-10-11T06:09:46.229Z,96720.72
2022-10-11T06:12:12.812Z,96733.97
2022-10-11T06:14:40.865Z,96725.53
2022-10-11T06:17:07.661Z,96727.94
2022-10-11T06:19:35.127Z,96730.03
2022-10-11T06:22:02.556Z,96744.31
2022-10-11T06:24:33.958Z,96737.03
2022-10-11T06:27:02.323Z,96742.63
2022-10-11T06:29:28.761Z,96742.41
2022-10-11T06:31:57.336Z,96745.34
2022-10-11T06:34:24.135Z,96744.63
2022-10-11T06:36:50.901Z,96747.78
2022-10-11T06:39:17.499Z,96745.63
2022-10-11T06:41:44.338Z,96750.78
2022-10-11T06:44:14.132Z,96756.47
2022-10-11T06:46:41.659Z,96752.06
2022-10-11T06:49:10.469Z,96751.19
2022-10-11T06:51:36.922Z,96755.63
2022-10-11T06:54:03.740Z,96766.59
2022-10-11T06:56:31.035Z,96759.38
2022-10-11T06:58:58.437Z,96763.88
2022-10-11T07:01:27.893Z,96764.66
2022-10-11T07:03:55.335Z,96765.63
2022-10-11T07:06:22.117Z,96771.19
2022-10-11T07:08:50.829Z,96775.22
2022-10-11T07:11:18.503Z,96773.06
2022-10-11T07:13:45.785Z,96768.53
2022-10-11T07:16:17.314Z,96772.94
2022-10-11T07:18:46.177Z,96771.19
2022-10-11T07:21:13.141Z,96773.88
2022-10-11T07:23:40.439Z,96768.88
2022-10-11T07:26:09.662Z,96773.88
2022-10-11T07:28:37.598Z,96777.22
2022-10-11T07:31:04.271Z,96773.34
2022-10-11T07:33:30.958Z,96774.41
2022-10-11T07:35:58.365Z,96774.44
2022-10-11T07:38:29.172Z,96775.31
2022-10-11T07:40:57.748Z,96774.72
2022-10-11T07:43:26.722Z,96778.56
2022-10-11T07:45:53.787Z,96774.28
2022-10-11T07:48:21.200Z,96779.19
2022-10-11T07:50:48.495Z,96776.78
2022-10-11T07:53:15.257Z,96777.97
2022-10-11T07:55:43.088Z,96780.78
2022-10-11T07:58:09.977Z,96781.53
2022-10-11T08:00:40.898Z,96786.28
2022-10-11T08:03:10.119Z,96776.47
2022-10-11T08:05:38.568Z,96778.91
2022-10-11T08:08:05.279Z,96786.81
2022-10-11T08:10:31.825Z,96786.78
2022-10-11T08:13:03.394Z,96790.72
2022-10-11T08:15:31.684Z,96786.56
2022-10-11T08:17:58.613Z,96786.13
2022-10-11T08:20:25.946Z,96791.06
2022-10-11T08:22:53.286Z,96782.16
2022-10-11T08:25:28.092Z,96793.69
2022-10-11T08:27:58.229Z,96783.03
2022-10-11T08:30:26.457Z,96790.00
2022-10-11T08:32:54.265Z,96790.63
2022-10-11T08:35:21.477Z,96792.09
2022-10-11T08:37:48.388Z,96788.53
2022-10-11T08:40:15.206Z,96786.56
2022-10-11T08:42:42.094Z,96788.44
2022-10-11T08:47:50.458Z,96789.53
2022-10-11T08:50:17.766Z,96789.78
2022-10-11T08:52:44.914Z,96786.97
2022-10-11T08:55:12.657Z,96781.03
2022-10-11T09:03:45.474Z,96794.78
2022-10-11T09:06:17.260Z,96795.00
2022-10-11T09:08:44.096Z,96793.25
2022-10-11T09:11:25.241Z,96795.41
2022-10-11T09:16:42.187Z,96793.34
2022-10-11T09:19:11.168Z,96785.22
2022-10-11T09:21:41.229Z,96786.59
2022-10-11T09:24:09.619Z,96782.38
2022-10-11T09:26:38.375Z,96780.59
2022-10-11T09:29:05.418Z,96784.38
2022-10-11T09:31:32.272Z,96789.25
2022-10-11T09:33:59.714Z,96779.72
2022-10-11T09:36:26.585Z,96786.94
2022-10-11T09:38:53.234Z,96779.31
2022-10-11T09:41:21.628Z,96782.41
2022-10-11T09:43:48.405Z,96782.31
2022-10-11T09:46:15.820Z,96780.00
2022-10-11T09:48:42.788Z,96786.53
2022-10-11T09:51:12.434Z,96777.53
2022-10-11T09:53:39.580Z,96778.31
2022-10-11T09:56:07.856Z,96782.56
2022-10-11T09:58:35.097Z,96777.50
2022-10-11T10:01:07.664Z,96778.22
2022-10-11T10:03:35.945Z,96786.75
2022-10-11T10:06:02.853Z,96783.72
2022-10-11T10:08:29.983Z,96787.16
2022-10-11T10:10:59.416Z,96773.69
2022-10-11T10:13:26.724Z,96777.94
2022-10-11T10:15:55.713Z,96776.09
2022-10-11T10:18:24.723Z,96774.03
2022-10-11T10:20:52.564Z,96773.19
2022-10-11T10:23:20.896Z,96773.03
2022-10-11T10:25:47.580Z,96771.75
2022-10-11T10:28:18.587Z,96768.28
2022-10-11T10:30:45.835Z,96775.56
2022-10-11T10:33:13.378Z,96770.13
2022-10-11T10:35:41.171Z,96770.03
2022-10-11T10:38:10.517Z,96773.63
2022-10-11T10:40:37.065Z,96763.09
2022-10-11T10:43:05.021Z,96761.53
2022-10-11T10:45:39.064Z,96762.91
2022-10-11T10:48:06.779Z,96767.47
2022-10-11T10:50:33.909Z,96762.00
2022-10-11T10:53:03.017Z,96765.28
2022-10-11T10:55:30.841Z,96760.25
2022-10-11T10:58:00.354Z,96762.28
2022-10-11T11:00:27.194Z,96776.03
2022-10-11T11:02:59.384Z,96769.78
2022-10-11T11:05:27.115Z,96762.91
2022-10-11T11:07:54.033Z,96770.88
2022-10-11T11:10:20.784Z,96758.50
2022-10-11T11:12:50.082Z,96758.31
2022-10-11T11:15:19.604Z,96756.84
2022-10-11T11:17:47.287Z,96752.22
2022-10-11T11:23:27.760Z,96752.75
2022-10-11T11:25:54.461Z,96744.75
2022-10-11T11:28:21.423Z,96754.47
2022-10-11T11:30:52.345Z,96751.72
2022-10-11T11:33:19.101Z,96745.13
2022-10-11T11:35:47.815Z,96744.88
2022-10-11T11:38:14.582Z,96743.94
2022-10-11T11:40:43.602Z,96742.47
2022-10-11T11:45:51.710Z,96741.69
2022-10-11T11:48:18.607Z,96742.06
2022-10-11T11:50:45.825Z,96739.56
2022-10-11T11:53:14.131Z,96746.13
2022-10-11T11:55:42.864Z,96738.31
2022-10-11T11:58:13.159Z,96737.53
2022-10-11T12:00:41.973Z,96734.13
2022-10-11T12:03:13.382Z,96733.31
2022-10-11T12:05:43.184Z,96730.72
2022-10-11T12:08:13.757Z,96724.91
2022-10-11T12:10:40.704Z,96729.34
2022-10-11T12:19:23.722Z,96713.25
2022-10-11T12:21:53.376Z,96711.38
2022-10-11T12:24:23.340Z,96712.00
2022-10-11T12:26:54.130Z,96712.22
2022-10-11T12:29:27.482Z,96705.91
2022-10-11T12:31:59.091Z,96704.09
2022-10-11T12:34:25.598Z,96706.34
2022-10-11T12:36:52.136Z,96698.13
2022-10-11T12:39:18.731Z,96696.72
2022-10-11T12:41:45.472Z,96696.22
2022-10-11T12:44:11.913Z,96691.28
2022-10-11T12:46:38.625Z,96691.78
2022-10-11T12:49:05.177Z,96693.88
2022-10-11T12:51:32.057Z,96688.22
2022-10-11T12:54:25.359Z,96682.63
2022-10-11T13:06:14.182Z,96678.88
2022-10-11T13:08:41.102Z,96686.00
2022-10-11T13:11:09.041Z,96679.50
2022-10-11T13:13:38.889Z,96674.69
2022-10-11T13:16:06.360Z,96677.84
2022-10-11T13:18:36.760Z,96676.09
2022-10-11T13:21:03.390Z,96672.94
2022-10-11T13:23:31.209Z,96668.63
2022-10-11T13:25:57.970Z,96666.09
2022-10-11T13:28:25.232Z,96663.34
2022-10-11T13:30:52.104Z,96664.78
2022-10-11T13:33:19.814Z,96659.66
2022-10-11T13:35:48.640Z,96655.34
2022-10-11T13:38:17.514Z,96654.59
2022-10-11T13:40:50.058Z,96649.91
2022-10-11T13:43:19.532Z,96645.13
2022-10-11T13:45:46.938Z,96650.84
2022-10-11T13:48:15.859Z,96651.59
2022-10-11T13:50:42.807Z,96646.31
2022-10-11T13:53:10.468Z,96649.81
2022-10-11T13:55:36.965Z,96642.59
2022-10-11T13:58:08.547Z,96647.88
2022-10-11T14:00:35.678Z,96643.75
2022-10-11T14:03:04.269Z,96644.94
2022-10-11T14:05:32.605Z,96631.81
2022-10-11T14:08:00.864Z,96634.69
2022-10-11T14:10:29.435Z,96630.97
2022-10-11T14:12:56.971Z,96638.16
2022-10-11T14:15:24.072Z,96637.47
2022-10-11T14:17:50.799Z,96630.84
2022-10-11T14:20:18.355Z,96635.31
2022-10-11T14:22:47.880Z,96638.84
2022-10-11T14:25:14.772Z,96639.44
2022-10-11T14:27:43.627Z,96635.34
2022-10-11T14:30:25.229Z,96638.00
2022-10-11T14:33:00.496Z,96632.88
2022-10-11T14:35:27.682Z,96630.75
2022-10-11T14:37:54.407Z,96632.25
2022-10-11T14:40:24.255Z,96638.69
2022-10-11T14:42:51.006Z,96633.50
2022-10-11T14:45:17.731Z,96628.06
2022-10-11T14:47:44.277Z,96632.16
2022-10-11T14:50:11.163Z,96625.72
2022-10-11T14:52:38.172Z,96629.38
2022-10-11T14:55:06.835Z,96625.19
2022-10-11T14:57:40.980Z,96632.34
2022-10-11T15:00:09.362Z,96627.66
2022-10-11T15:02:47.479Z,96625.69
2022-10-11T15:05:14.457Z,96621.41
2022-10-11T15:07:44.353Z,96629.53
2022-10-11T15:10:15.233Z,96631.06
2022-10-11T15:12:46.608Z,96627.41
2022-10-11T15:15:18.975Z,96626.22
2022-10-11T15:17:48.085Z,96624.50
2022-10-11T15:20:22.159Z,96631.41
2022-10-11T15:22:49.055Z,96628.00
2022-10-11T15:25:18.913Z,96632.16
2022-10-11T15:27:45.461Z,96625.53
2022-10-11T15:30:13.341Z,96626.22
2022-10-11T15:32:52.412Z,96622.34
2022-10-11T15:35:19.839Z,96619.94
2022-10-11T15:37:46.805Z,96610.69
2022-10-11T15:40:14.250Z,96625.25
2022-10-11T15:42:40.916Z,96615.16
2022-10-11T15:45:07.431Z,96619.53
2022-10-11T15:47:34.291Z,96613.94
2022-10-11T15:53:12.200Z,96620.19
2022-10-11T15:55:41.704Z,96609.94
2022-10-11T15:58:08.334Z,96615.53
2022-10-11T16:00:35.944Z,96616.00
2022-10-11T16:03:03.262Z,96617.28
2022-10-11T16:05:32.896Z,96618.31
2022-10-11T16:07:59.811Z,96613.69
2022-10-11T16:10:26.439Z,96629.81
2022-10-11T16:12:53.873Z,96619.34
2022-10-11T16:15:20.629Z,96619.16
2022-10-11T16:17:47.606Z,96626.28
2022-10-11T16:20:16.055Z,96638.22
2022-10-11T16:22:42.938Z,96628.91
2022-10-11T16:25:10.262Z,96631.47
2022-10-11T16:27:36.938Z,96632.72
2022-10-11T16:30:03.672Z,96636.53
2022-10-11T16:32:33.034Z,96637.63
2022-10-11T16:35:01.029Z,96638.69
2022-10-11T16:37:32.129Z,96645.09
2022-10-11T16:39:59.181Z,96644.22
2022-10-11T16:42:27.236Z,96647.66
2022-10-11T16:47:44.078Z,96651.34
2022-10-11T16:50:12.251Z,96658.63
2022-10-11T16:52:38.910Z,96654.75
2022-10-11T16:55:05.562Z,96663.53
2022-10-11T16:57:32.368Z,96661.84
2022-10-11T16:59:59.740Z,96669.72
2022-10-11T17:02:32.342Z,96662.22
2022-10-11T17:04:59.334Z,96666.59
2022-10-11T17:07:26.736Z,96658.53
2022-10-11T17:09:53.617Z,96654.00
2022-10-11T17:12:21.027Z,96649.75
2022-10-11T17:14:48.203Z,96655.50
2022-10-11T17:17:14.967Z,96654.06
2022-10-11T17:19:45.568Z,96648.84
2022-10-11T17:22:12.480Z,96652.78
2022-10-11T17:24:49.800Z,96647.66
2022-10-11T17:27:16.695Z,96646.09
2022-10-11T17:29:43.653Z,96642.03
2022-10-11T17:32:10.456Z,96646.44
2022-10-11T17:34:37.274Z,96655.50
2022-10-11T17:37:04.186Z,96657.88
2022-10-11T17:39:32.694Z,96649.72
2022-10-11T17:42:06.649Z,96649.41
2022-10-11T17:44:33.961Z,96664.91
2022-10-11T17:56:51.503Z,96661.78
2022-10-11T18:21:34.042Z,96681.31
2022-10-11T18:24:01.730Z,96680.56
2022-10-11T18:26:30.946Z,96682.13
2022-10-11T18:28:57.697Z,96679.09
2022-10-11T18:31:24.317Z,96677.25
2022-10-11T18:33:50.924Z,96677.94
2022-10-11T18:36:17.507Z,96668.34
2022-10-11T18:38:44.452Z,96674.19
2022-10-11T19:51:10.619Z,96695.16
2022-10-11T19:56:18.028Z,96691.69
2022-10-11T19:58:45.547Z,96698.75
2022-10-11T20:01:13.363Z,96693.09
2022-10-11T20:03:41.486Z,96692.59
2022-10-11T20:06:13.442Z,96689.00
2022-10-11T20:08:41.917Z,96693.56
2022-10-11T20:11:11.375Z,96695.25
2022-10-11T20:13:41.720Z,96703.03
2022-10-11T20:16:20.927Z,96704.19
2022-10-11T20:19:11.172Z,96700.41
2022-10-11T20:24:47.010Z,96702.63
2022-10-11T20:27:16.682Z,96705.44
2022-10-11T20:29:51.899Z,96697.44
2022-10-11T22:16:34.368Z,96726.56
2022-10-11T22:19:06.569Z,96726.47
2022-10-11T22:21:45.082Z,96718.53
2022-10-11T22:24:29.423Z,96730.31
2022-10-11T22:26:56.364Z,96728.06
2022-10-11T22:29:30.516Z,96726.31
2022-10-11T22:32:02.390Z,96729.47
2022-10-11T22:34:34.439Z,96727.63
2022-10-11T22:37:11.123Z,96728.50
2022-10-11T22:39:39.398Z,96732.19
2022-10-11T22:42:17.031Z,96730.19
2022-10-11T22:44:43.683Z,96733.25
2022-10-11T22:47:10.400Z,96727.91
2022-10-11T22:49:37.306Z,96727.88
2022-10-11T22:52:04.602Z,96726.78
2022-10-11T22:54:31.465Z,96731.38
2022-10-11T22:56:58.897Z,96737.97
2022-10-11T22:59:25.394Z,96734.28
2022-10-11T23:01:59.591Z,96738.41
2022-10-11T23:04:26.694Z,96730.88
2022-10-11T23:06:54.152Z,96732.66
2022-10-11T23:09:21.623Z,96739.06
2022-10-11T23:11:49.305Z,96740.09
2022-10-11T23:14:15.913Z,96733.84
2022-10-11T23:16:45.443Z,96742.00
2022-10-11T23:19:12.272Z,96739.78
2022-10-11T23:21:39.187Z,96739.47
2022-10-11T23:24:13.265Z,96736.09
2022-10-11T23:26:40.614Z,96740.50
2022-10-11T23:29:07.289Z,96737.81
2022-10-11T23:31:33.749Z,96741.56
2022-10-11T23:34:01.309Z,96749.69
2022-10-11T23:36:28.125Z,96748.41
2022-10-11T23:38:54.797Z,96744.41
2022-10-11T23:41:23.916Z,96743.88
2022-10-11T23:43:50.789Z,96743.88
2022-10-11T23:46:17.795Z,96757.25
2022-10-11T23:48:44.720Z,96746.88
2022-10-11T23:51:12.071Z,96753.34
2022-10-11T23:53:38.732Z,96752.59
2022-10-11T23:56:06.127Z,96750.53
2022-10-11T23:58:32.923Z,96753.91
